Time;durP1;ratioP1;P1;durP2;ratioP2;P2;SDS_P1;SDS_P2;PMS_P1;PMS_P2;Temp;Humidity;BMP_temperature;BMP_pressure;BME280_temperature;BME280_humidity;BME280_pressure;Samples;Min_cycle;Max_cycle;Signal;HPM_P1;HPM_P2
2023/12/30 00:01:21;;;;;;;;;;;;;;;;;;5037962;28;20112;-78
2023/12/30 00:03:47;;;;;;;10.40;7.60;;;;;;;;;;5048893;28;19963;-78
2023/12/30 00:06:12;;;;;;;10.32;7.10;;;;;;;;;;5008269;28;20491;-78
2023/12/30 00:08:37;;;;;;;;;;;;;;;;;;5031728;28;20045;-78
2023/12/30 00:11:03;;;;;;;11.30;8.00;;;;;;;;;;5031253;28;19909;-78
2023/12/30 00:13:28;;;;;;;11.75;8.48;;;;;;;;;;5031531;28;20504;-78
2023/12/30 00:15:54;;;;;;;11.40;7.63;;;;;;;;;;5030254;28;20068;-78
2023/12/30 00:18:19;;;;;;;11.30;7.95;;;;;;;;;;5015885;28;20048;-77
2023/12/30 00:20:45;;;;;;;;;;;;;;;;;;5030514;28;20040;-77
2023/12/30 00:23:11;;;;;;;12.77;8.27;;;;;;;;;;5031088;28;19916;-78
2023/12/30 00:25:37;;;;;;;10.60;7.82;;;;;;;;;;5031125;28;20040;-78
2023/12/30 00:28:02;;;;;;;12.32;8.65;;;;;;;;;;5014085;28;20041;-78
2023/12/30 00:30:28;;;;;;;13.32;9.32;;;;;;;;;;5031446;28;20053;-78
2023/12/30 00:32:53;;;;;;;13.85;9.27;;;;;;;;;;5042805;28;20036;-78
2023/12/30 00:35:19;;;;;;;13.27;9.55;;;;;;;;;;5039561;28;20045;-78
2023/12/30 00:37:44;;;;;;;12.68;9.23;;;;;;;;;;5021247;28;20032;-78
2023/12/30 00:40:10;;;;;;;11.63;8.73;;;;;;;;;;5042161;28;20025;-78
2023/12/30 00:42:35;;;;;;;13.02;8.95;;;;;;;;;;5031676;28;20404;-78
2023/12/30 00:45:01;;;;;;;12.75;8.88;;;;;;;;;;5040651;28;20061;-78
2023/12/30 00:47:26;;;;;;;13.23;9.57;;;;;;;;;;5029730;28;20041;-78
2023/12/30 00:49:52;;;;;;;12.13;8.30;;;;;;;;;;5026569;28;20064;-78
2023/12/30 00:52:17;;;;;;;13.75;10.25;;;;;;;;;;5037106;28;20064;-78
2023/12/30 00:54:42;;;;;;;12.75;9.15;;;;;;;;;;5034485;28;20029;-78
2023/12/30 00:57:08;;;;;;;;;;;;;;;;;;5041624;28;20045;-78
2023/12/30 00:59:33;;;;;;;13.18;8.80;;;;;;;;;;5041713;28;19908;-78
2023/12/30 01:01:59;;;;;;;12.23;8.57;;;;;;;;;;5029745;28;20060;-78
2023/12/30 01:04:25;;;;;;;12.43;8.32;;;;;;;;;;5029690;28;20029;-78
2023/12/30 01:06:51;;;;;;;13.35;9.40;;;;;;;;;;5031127;28;20037;-78
2023/12/30 01:09:16;;;;;;;12.75;8.48;;;;;;;;;;5030759;28;20035;-78
2023/12/30 01:11:42;;;;;;;11.98;8.95;;;;;;;;;;5021892;28;20026;-78
2023/12/30 01:14:08;;;;;;;15.05;8.43;;;;;;;;;;5024245;28;20461;-78
2023/12/30 01:16:36;;;;;;;11.68;8.57;;;;;;;;;;5012922;28;20116;-78
2023/12/30 01:19:01;;;;;;;14.00;9.68;;;;;;;;;;5013739;28;20095;-78
2023/12/30 01:21:27;;;;;;;11.68;8.27;;;;;;;;;;5032978;28;20030;-78
2023/12/30 01:23:53;;;;;;;10.35;8.02;;;;;;;;;;5030607;28;20025;-78
2023/12/30 01:26:19;;;;;;;11.30;8.32;;;;;;;;;;5044385;28;20048;-78
2023/12/30 01:28:45;;;;;;;11.00;8.27;;;;;;;;;;5030712;28;20060;-78
2023/12/30 01:31:10;;;;;;;;;;;;;;;;;;5011763;28;20052;-78
2023/12/30 01:33:35;;;;;;;11.88;7.50;;;;;;;;;;5029291;28;19909;-78
2023/12/30 01:36:01;;;;;;;10.40;7.72;;;;;;;;;;5032984;28;20040;-78
2023/12/30 01:38:26;;;;;;;;;;;;;;;;;;5029479;28;20029;-78
2023/12/30 01:40:53;;;;;;;11.90;8.27;;;;;;;;;;5030436;28;19913;-78
2023/12/30 01:43:22;;;;;;;11.02;7.95;;;;;;;;;;5030415;28;20107;-78
2023/12/30 01:45:48;;;;;;;10.85;7.85;;;;;;;;;;5044665;28;20050;-78
2023/12/30 01:48:13;;;;;;;;;;;;;;;;;;5031671;28;20041;-78
2023/12/30 01:50:39;;;;;;;11.00;7.70;;;;;;;;;;5040497;28;19917;-78
2023/12/30 01:53:04;;;;;;;;;;;;;;;;;;5041832;28;20087;-78
2023/12/30 01:55:29;;;;;;;11.70;7.78;;;;;;;;;;5037566;28;19914;-78
2023/12/30 01:57:55;;;;;;;9.23;6.70;;;;;;;;;;5011929;28;20018;-78
2023/12/30 02:00:21;;;;;;;11.80;7.15;;;;;;;;;;5032695;28;20038;-78
2023/12/30 02:02:46;;;;;;;;;;;;;;;;;;5026274;28;20116;-78
2023/12/30 02:05:11;;;;;;;9.73;7.07;;;;;;;;;;5039533;28;19912;-78
2023/12/30 02:07:37;;;;;;;9.70;7.47;;;;;;;;;;5033035;28;20018;-78
2023/12/30 02:10:03;;;;;;;10.90;7.45;;;;;;;;;;5033461;28;20033;-78
2023/12/30 02:12:28;;;;;;;;;;;;;;;;;;5048094;28;20488;-78
2023/12/30 02:14:54;;;;;;;9.27;7.30;;;;;;;;;;5034844;28;19919;-78
2023/12/30 02:17:19;;;;;;;;;;;;;;;;;;5039371;28;20484;-78
2023/12/30 02:19:44;;;;;;;11.05;7.40;;;;;;;;;;5033140;28;19913;-78
2023/12/30 02:22:10;;;;;;;11.65;8.05;;;;;;;;;;5042377;28;20040;-77
2023/12/30 02:24:35;;;;;;;10.15;6.95;;;;;;;;;;5040508;28;20033;-77
2023/12/30 02:27:01;;;;;;;;;;;;;;;;;;5033035;28;20063;-77
2023/12/30 02:29:26;;;;;;;10.45;7.43;;;;;;;;;;5032176;28;20642;-77
2023/12/30 02:31:52;;;;;;;12.98;8.20;;;;;;;;;;5034038;28;20112;-77
2023/12/30 02:34:17;;;;;;;;;;;;;;;;;;5032812;28;20057;-77
2023/12/30 02:36:43;;;;;;;12.18;7.72;;;;;;;;;;5042941;28;19909;-78
2023/12/30 02:39:09;;;;;;;11.40;7.90;;;;;;;;;;5020311;28;20130;-77
2023/12/30 02:41:35;;;;;;;14.48;8.60;;;;;;;;;;5019289;28;20065;-77
2023/12/30 02:44:02;;;;;;;10.50;7.50;;;;;;;;;;5040817;28;20076;-78
2023/12/30 02:46:28;;;;;;;10.65;7.57;;;;;;;;;;5043581;28;20072;-78
2023/12/30 02:48:53;;;;;;;;;;;;;;;;;;5012101;28;20029;-77
2023/12/30 02:51:19;;;;;;;11.88;7.40;;;;;;;;;;5025092;28;20014;-77
2023/12/30 02:53:46;;;;;;;10.98;7.40;;;;;;;;;;5015640;28;20514;-76
2023/12/30 02:56:21;;;;;;;11.82;8.00;;;;;;;;;;5040364;28;20029;-77
2023/12/30 02:58:48;;;;;;;13.15;8.15;;;;;;;;;;5040582;28;20503;-78
2023/12/30 03:01:13;;;;;;;12.85;8.00;;;;;;;;;;5038781;28;20069;-77
2023/12/30 03:03:39;;;;;;;11.40;7.53;;;;;;;;;;5032418;28;20084;-77
2023/12/30 03:06:04;;;;;;;12.68;7.90;;;;;;;;;;5031528;28;20041;-78
2023/12/30 03:08:30;;;;;;;;;;;;;;;;;;5031588;28;20432;-78
2023/12/30 03:10:55;;;;;;;11.85;7.70;;;;;;;;;;5032836;28;20054;-77
2023/12/30 03:13:21;;;;;;;12.90;7.45;;;;;;;;;;5033139;28;20492;-77
2023/12/30 03:15:46;;;;;;;12.23;8.02;;;;;;;;;;5032364;28;20512;-77
2023/12/30 03:18:12;;;;;;;13.93;7.85;;;;;;;;;;5031402;28;20041;-77
2023/12/30 03:20:37;;;;;;;11.60;8.35;;;;;;;;;;5031556;28;20369;-77
2023/12/30 03:23:03;;;;;;;12.30;7.90;;;;;;;;;;5032349;28;20143;-78
2023/12/30 03:25:28;;;;;;;13.40;9.27;;;;;;;;;;5020891;28;20127;-78
2023/12/30 03:27:54;;;;;;;;;;;;;;;;;;5033220;28;20033;-78
2023/12/30 03:30:19;;;;;;;12.50;8.10;;;;;;;;;;5036431;28;19960;-77
2023/12/30 03:32:45;;;;;;;13.52;8.07;;;;;;;;;;5025417;28;20030;-78
2023/12/30 03:35:10;;;;;;;;;;;;;;;;;;5024856;28;20503;-78
2023/12/30 03:37:36;;;;;;;11.80;8.30;;;;;;;;;;5030986;28;19913;-77
2023/12/30 03:40:01;;;;;;;10.50;7.30;;;;;;;;;;5014726;28;20396;-76
2023/12/30 03:42:27;;;;;;;;;;;;;;;;;;5029515;28;20132;-78
2023/12/30 03:44:52;;;;;;;13.13;7.65;;;;;;;;;;5039444;28;19975;-78
2023/12/30 03:47:18;;;;;;;11.65;7.95;;;;;;;;;;5031583;28;20102;-77
2023/12/30 03:49:43;;;;;;;;;;;;;;;;;;5035808;28;20536;-78
2023/12/30 03:52:09;;;;;;;11.43;6.90;;;;;;;;;;5031333;28;19920;-78
2023/12/30 03:54:34;;;;;;;9.55;6.15;;;;;;;;;;5027471;28;20025;-78
2023/12/30 03:57:00;;;;;;;12.18;7.28;;;;;;;;;;5000041;28;20070;-78
2023/12/30 03:59:25;;;;;;;;;;;;;;;;;;5018651;28;20045;-78
2023/12/30 04:01:51;;;;;;;11.02;7.15;;;;;;;;;;5036341;28;19919;-78
2023/12/30 04:04:16;;;;;;;;;;;;;;;;;;5035106;28;20029;-78
2023/12/30 04:06:41;;;;;;;12.68;6.45;;;;;;;;;;5036281;28;19913;-78
2023/12/30 04:09:07;;;;;;;11.88;6.90;;;;;;;;;;5037305;28;20034;-78
2023/12/30 04:11:33;;;;;;;11.45;7.07;;;;;;;;;;5041946;28;20491;-78
2023/12/30 04:13:58;;;;;;;14.93;7.18;;;;;;;;;;5016357;28;20025;-78
2023/12/30 04:16:24;;;;;;;;;;;;;;;;;;5009208;28;20033;-78
2023/12/30 04:18:49;;;;;;;10.30;6.15;;;;;;;;;;5032954;28;20352;-78
2023/12/30 04:21:14;;;;;;;;;;;;;;;;;;5042749;28;20056;-78
2023/12/30 04:23:40;;;;;;;10.18;6.75;;;;;;;;;;5039588;28;20003;-78
2023/12/30 04:26:06;;;;;;;11.82;6.22;;;;;;;;;;5041345;28;20057;-78
2023/12/30 04:28:31;;;;;;;12.32;5.93;;;;;;;;;;5023682;28;20388;-78
2023/12/30 04:30:57;;;;;;;9.77;6.22;;;;;;;;;;5031324;28;20400;-78
2023/12/30 04:33:22;;;;;;;10.95;6.05;;;;;;;;;;5022611;28;20025;-78
2023/12/30 04:35:48;;;;;;;11.88;6.72;;;;;;;;;;5010855;28;21047;-78
2023/12/30 04:38:15;;;;;;;11.50;6.00;;;;;;;;;;5018969;28;20037;-78
2023/12/30 04:40:40;;;;;;;9.50;6.30;;;;;;;;;;5016557;28;20033;-78
2023/12/30 04:43:06;;;;;;;10.30;6.43;;;;;;;;;;5032428;28;20372;-78
2023/12/30 04:45:32;;;;;;;11.70;5.88;;;;;;;;;;5009165;28;20054;-78
2023/12/30 04:47:57;;;;;;;10.43;5.80;;;;;;;;;;5029078;28;20040;-78
2023/12/30 04:50:23;;;;;;;10.70;6.00;;;;;;;;;;5014447;28;20129;-78
2023/12/30 04:52:51;;;;;;;10.13;6.30;;;;;;;;;;5038122;28;20048;-78
2023/12/30 04:55:17;;;;;;;10.90;6.47;;;;;;;;;;5029401;28;20095;-78
2023/12/30 04:57:47;;;;;;;;;;;;;;;;;;5040164;28;20065;-78
2023/12/30 05:00:14;;;;;;;10.38;6.65;;;;;;;;;;5030716;28;20380;-76
2023/12/30 05:02:39;;;;;;;13.77;6.53;;;;;;;;;;5012951;28;20091;-78
2023/12/30 05:05:05;;;;;;;10.40;6.68;;;;;;;;;;5044833;28;20389;-77
2023/12/30 05:07:30;;;;;;;8.23;5.70;;;;;;;;;;5032918;28;20033;-77
2023/12/30 05:09:56;;;;;;;12.23;6.38;;;;;;;;;;5032931;28;20049;-78
2023/12/30 05:12:21;;;;;;;;;;;;;;;;;;5031047;28;20543;-77
2023/12/30 05:14:47;;;;;;;13.40;6.13;;;;;;;;;;5032824;28;19913;-77
2023/12/30 05:17:13;;;;;;;;;;;;;;;;;;5031333;28;20026;-78
2023/12/30 05:19:38;;;;;;;11.40;5.72;;;;;;;;;;5029021;28;19940;-77
2023/12/30 05:22:04;;;;;;;8.82;5.70;;;;;;;;;;5029240;28;20511;-77
2023/12/30 05:24:30;;;;;;;8.27;5.30;;;;;;;;;;5037839;28;20067;-78
2023/12/30 05:26:55;;;;;;;7.93;5.18;;;;;;;;;;5006266;28;20115;-77
2023/12/30 05:29:21;;;;;;;;;;;;;;;;;;5038348;28;20037;-78
2023/12/30 05:31:47;;;;;;;11.10;5.40;;;;;;;;;;5030535;28;19915;-76
2023/12/30 05:34:12;;;;;;;9.15;5.53;;;;;;;;;;5030023;28;20087;-78
2023/12/30 05:36:38;;;;;;;;;;;;;;;;;;5031173;28;20134;-78
2023/12/30 05:39:03;;;;;;;10.40;6.13;;;;;;;;;;5030461;28;19913;-77
2023/12/30 05:41:29;;;;;;;;;;;;;;;;;;5029498;28;20038;-77
2023/12/30 05:43:54;;;;;;;10.45;5.13;;;;;;;;;;5033662;28;19913;-77
2023/12/30 05:46:20;;;;;;;11.13;5.75;;;;;;;;;;5020462;28;20048;-78
2023/12/30 05:48:45;;;;;;;9.38;5.13;;;;;;;;;;5029917;28;20029;-78
2023/12/30 05:51:11;;;;;;;;;;;;;;;;;;5029948;28;20029;-78
2023/12/30 05:53:36;;;;;;;7.72;4.43;;;;;;;;;;5040717;28;20515;-77
2023/12/30 05:56:02;;;;;;;7.65;4.78;;;;;;;;;;5033474;28;20105;-77
2023/12/30 05:58:28;;;;;;;;;;;;;;;;;;5030606;28;20068;-77
2023/12/30 06:00:54;;;;;;;8.45;4.32;;;;;;;;;;5029892;28;19956;-77
2023/12/30 06:03:44;;;;;;;6.82;4.35;;;;;;;;;;5021581;28;20044;-77
2023/12/30 06:06:09;;;;;;;;;;;;;;;;;;5014147;28;20037;-77
2023/12/30 06:08:35;;;;;;;8.95;4.28;;;;;;;;;;5025718;28;19917;-77
2023/12/30 06:11:00;;;;;;;9.70;4.20;;;;;;;;;;5037306;28;20045;-77
2023/12/30 06:13:25;;;;;;;7.43;4.25;;;;;;;;;;5033682;28;20026;-77
2023/12/30 06:15:51;;;;;;;8.88;4.15;;;;;;;;;;5034486;28;20033;-78
2023/12/30 06:18:17;;;;;;;6.70;4.35;;;;;;;;;;5028820;28;20117;-78
2023/12/30 06:20:46;;;;;;;7.30;4.28;;;;;;;;;;5021440;28;20116;-78
2023/12/30 06:23:11;;;;;;;7.43;3.70;;;;;;;;;;5023733;28;20030;-78
2023/12/30 06:25:37;;;;;;;;;;;;;;;;;;5020760;28;20037;-78
2023/12/30 06:28:04;;;;;;;7.25;4.00;;;;;;;;;;5023344;28;19913;-78
2023/12/30 06:30:29;;;;;;;10.15;4.60;;;;;;;;;;5015648;28;20096;-78
2023/12/30 06:32:55;;;;;;;6.80;4.05;;;;;;;;;;5028671;28;20021;-78
2023/12/30 06:35:20;;;;;;;;;;;;;;;;;;5012683;28;20060;-78
2023/12/30 06:37:47;;;;;;;7.28;4.47;;;;;;;;;;5027147;28;19909;-78
2023/12/30 06:40:12;;;;;;;10.27;5.22;;;;;;;;;;5009478;28;20060;-78
2023/12/30 06:42:38;;;;;;;;;;;;;;;;;;5032600;28;20027;-78
2023/12/30 06:45:04;;;;;;;7.15;4.05;;;;;;;;;;5030446;28;19921;-78
2023/12/30 06:47:30;;;;;;;;;;;;;;;;;;5033806;28;20124;-78
2023/12/30 06:49:55;;;;;;;8.55;4.25;;;;;;;;;;5033098;28;19917;-80
2023/12/30 06:52:20;;;;;;;6.78;4.30;;;;;;;;;;5030616;28;20076;-77
2023/12/30 06:54:46;;;;;;;8.20;4.00;;;;;;;;;;5034690;28;20079;-78
2023/12/30 06:57:12;;;;;;;7.95;4.13;;;;;;;;;;5037246;28;20033;-78
2023/12/30 06:59:37;;;;;;;;;;;;;;;;;;5043419;28;20052;-78
2023/12/30 07:02:02;;;;;;;11.63;4.68;;;;;;;;;;5033286;28;21320;-78
2023/12/30 07:04:28;;;;;;;;;;;;;;;;;;5047246;28;20506;-78
2023/12/30 07:06:53;;;;;;;6.65;4.03;;;;;;;;;;5029609;28;19913;-78
2023/12/30 07:09:19;;;;;;;5.65;3.45;;;;;;;;;;5037209;28;20068;-78
2023/12/30 07:11:45;;;;;;;;;;;;;;;;;;5039481;28;20080;-78
2023/12/30 07:14:11;;;;;;;8.48;4.18;;;;;;;;;;5026827;28;20301;-77
2023/12/30 07:16:37;;;;;;;8.48;3.92;;;;;;;;;;5033763;28;20112;-78
2023/12/30 07:19:02;;;;;;;;;;;;;;;;;;5035660;28;20496;-77
2023/12/30 07:21:28;;;;;;;9.48;4.15;;;;;;;;;;5035529;28;19909;-78
2023/12/30 07:23:53;;;;;;;7.15;4.22;;;;;;;;;;5036986;28;20420;-78
2023/12/30 07:26:19;;;;;;;6.15;4.03;;;;;;;;;;5030814;28;20095;-79
2023/12/30 07:28:45;;;;;;;8.75;3.60;;;;;;;;;;5034465;28;20110;-79
2023/12/30 07:31:10;;;;;;;;;;;;;;;;;;5025784;28;20502;-78
2023/12/30 07:33:35;;;;;;;10.35;3.85;;;;;;;;;;5029853;28;19913;-78
2023/12/30 07:36:03;;;;;;;7.22;4.22;;;;;;;;;;5036193;28;20030;-77
2023/12/30 07:38:30;;;;;;;6.75;3.90;;;;;;;;;;5030882;28;20044;-77
2023/12/30 07:40:56;;;;;;;8.20;4.05;;;;;;;;;;5035751;28;20453;-77
2023/12/30 07:43:21;;;;;;;8.65;4.10;;;;;;;;;;5032937;28;20037;-77
2023/12/30 07:45:47;;;;;;;9.98;4.60;;;;;;;;;;5039518;28;20140;-77
2023/12/30 07:48:12;;;;;;;;;;;;;;;;;;5035900;28;20072;-78
2023/12/30 07:50:37;;;;;;;8.45;4.15;;;;;;;;;;5035777;28;19909;-78
2023/12/30 07:53:03;;;;;;;10.23;4.68;;;;;;;;;;5033397;28;20091;-78
2023/12/30 07:55:29;;;;;;;;;;;;;;;;;;5036379;28;20480;-78
2023/12/30 07:57:54;;;;;;;7.70;4.28;;;;;;;;;;5034452;28;19964;-76
2023/12/30 08:00:19;;;;;;;;;;;;;;;;;;5035029;28;20109;-76
2023/12/30 08:02:45;;;;;;;9.80;4.50;;;;;;;;;;5033173;28;20382;-77
2023/12/30 08:05:10;;;;;;;7.25;4.45;;;;;;;;;;5016237;28;20035;-78
2023/12/30 08:07:36;;;;;;;7.68;3.95;;;;;;;;;;5030695;28;20455;-78
2023/12/30 08:10:01;;;;;;;;;;;;;;;;;;5014372;28;20036;-78
2023/12/30 08:12:27;;;;;;;7.15;3.72;;;;;;;;;;5036356;28;20035;-79
2023/12/30 08:14:52;;;;;;;7.20;4.53;;;;;;;;;;5032758;28;20560;-79
2023/12/30 08:17:17;;;;;;;11.00;4.53;;;;;;;;;;5047683;28;20039;-79
2023/12/30 08:19:43;;;;;;;8.68;4.88;;;;;;;;;;5036951;28;20033;-79
2023/12/30 08:22:08;;;;;;;;;;;;;;;;;;5025652;28;20381;-79
2023/12/30 08:24:34;;;;;;;9.18;5.28;;;;;;;;;;5032778;28;19916;-79
2023/12/30 08:26:59;;;;;;;7.28;4.00;;;;;;;;;;5040606;28;20044;-79
2023/12/30 08:29:25;;;;;;;9.20;4.93;;;;;;;;;;5045661;28;20111;-79
2023/12/30 08:31:50;;;;;;;;;;;;;;;;;;5047445;28;20116;-78
2023/12/30 08:34:15;;;;;;;15.02;4.80;;;;;;;;;;5041939;28;20341;-78
2023/12/30 08:36:42;;;;;;;9.00;4.47;;;;;;;;;;5039177;28;20045;-78
2023/12/30 08:39:08;;;;;;;7.70;4.90;;;;;;;;;;5015843;28;20416;-79
2023/12/30 08:41:33;;;;;;;;;;;;;;;;;;5033613;28;20029;-78
2023/12/30 08:43:59;;;;;;;9.70;4.85;;;;;;;;;;5029131;28;19920;-78
2023/12/30 08:46:25;;;;;;;9.98;5.88;;;;;;;;;;5031186;28;20041;-79
2023/12/30 08:48:50;;;;;;;8.57;5.10;;;;;;;;;;5031426;28;20775;-78
2023/12/30 08:51:16;;;;;;;;;;;;;;;;;;5030782;28;20056;-78
2023/12/30 08:53:41;;;;;;;9.35;5.28;;;;;;;;;;5031143;28;19915;-78
2023/12/30 08:56:07;;;;;;;9.50;5.07;;;;;;;;;;5048532;28;20043;-78
2023/12/30 08:58:32;;;;;;;;;;;;;;;;;;5032378;28;20708;-78
2023/12/30 09:00:58;;;;;;;8.25;5.05;;;;;;;;;;5029994;28;19961;-78
2023/12/30 09:03:23;;;;;;;10.55;4.75;;;;;;;;;;5039125;28;20044;-79
2023/12/30 09:05:49;;;;;;;9.38;5.18;;;;;;;;;;5035015;28;20040;-78
2023/12/30 09:08:14;;;;;;;10.85;4.80;;;;;;;;;;5033706;28;20408;-78
2023/12/30 09:10:39;;;;;;;;;;;;;;;;;;5039186;28;20033;-78
2023/12/30 09:13:05;;;;;;;10.40;4.55;;;;;;;;;;5031122;28;20344;-78
2023/12/30 09:15:30;;;;;;;9.32;5.38;;;;;;;;;;5039121;28;20514;-79
2023/12/30 09:17:57;;;;;;;;;;;;;;;;;;5029341;28;20029;-79
2023/12/30 09:20:24;;;;;;;13.98;5.40;;;;;;;;;;5033887;28;19920;-78
2023/12/30 09:22:49;;;;;;;9.77;5.28;;;;;;;;;;5033200;28;20083;-78
2023/12/30 09:25:15;;;;;;;;;;;;;;;;;;5031925;28;20801;-78
2023/12/30 09:27:40;;;;;;;11.32;5.07;;;;;;;;;;5034491;28;19959;-78
2023/12/30 09:30:06;;;;;;;;;;;;;;;;;;5037547;28;20037;-78
2023/12/30 09:32:32;;;;;;;9.13;4.93;;;;;;;;;;5029147;28;20272;-78
2023/12/30 09:34:58;;;;;;;9.95;5.28;;;;;;;;;;5030839;28;20025;-78
2023/12/30 09:37:24;;;;;;;9.98;5.20;;;;;;;;;;5029579;28;20028;-78
2023/12/30 09:39:50;;;;;;;;;;;;;;;;;;5029064;28;20728;-78
2023/12/30 09:42:16;;;;;;;8.73;5.60;;;;;;;;;;5028185;28;19994;-78
2023/12/30 09:44:41;;;;;;;9.80;5.32;;;;;;;;;;5034433;28;20060;-79
2023/12/30 09:47:11;;;;;;;;;;;;;;;;;;5032505;28;20096;-79
2023/12/30 09:49:37;;;;;;;8.30;5.07;;;;;;;;;;5039592;28;20383;-79
2023/12/30 09:52:08;;;;;;;;;;;;;;;;;;5028793;28;20040;-78
2023/12/30 09:54:34;;;;;;;8.27;4.85;;;;;;;;;;5036844;28;19920;-78
2023/12/30 09:56:59;;;;;;;;;;;;;;;;;;5015846;28;20496;-78
2023/12/30 09:59:26;;;;;;;8.63;5.15;;;;;;;;;;5033491;28;19929;-78
2023/12/30 10:01:52;;;;;;;8.82;4.80;;;;;;;;;;5014517;28;20021;-79
2023/12/30 10:04:17;;;;;;;;;;;;;;;;;;5029774;28;20124;-78
2023/12/30 10:06:43;;;;;;;11.15;4.97;;;;;;;;;;5032891;28;19999;-78
2023/12/30 10:09:08;;;;;;;9.05;5.15;;;;;;;;;;5031841;28;20041;-79
2023/12/30 10:11:34;;;;;;;;;;;;;;;;;;5033375;28;20025;-79
2023/12/30 10:14:00;;;;;;;7.72;4.90;;;;;;;;;;5034873;28;19917;-78
2023/12/30 10:16:25;;;;;;;;;;;;;;;;;;5035961;28;20018;-79
2023/12/30 10:18:50;;;;;;;10.57;5.40;;;;;;;;;;5028165;28;19962;-78
2023/12/30 10:21:16;;;;;;;;;;;;;;;;;;5023542;28;20025;-78
2023/12/30 10:23:42;;;;;;;11.20;6.00;;;;;;;;;;5045007;28;20371;-78
2023/12/30 10:26:08;;;;;;;11.55;5.43;;;;;;;;;;5019826;28;20018;-79
2023/12/30 10:28:33;;;;;;;;;;;;;;;;;;5023190;28;20039;-78
2023/12/30 10:31:00;;;;;;;13.55;6.35;;;;;;;;;;5031038;28;20345;-78
2023/12/30 10:33:25;;;;;;;8.38;4.35;;;;;;;;;;5028711;28;20480;-79
2023/12/30 10:35:50;;;;;;;;;;;;;;;;;;5032031;28;20028;-78
2023/12/30 10:38:16;;;;;;;8.25;4.53;;;;;;;;;;5042056;28;19913;-78
2023/12/30 10:40:43;;;;;;;10.57;4.68;;;;;;;;;;5033957;28;20026;-77
2023/12/30 10:43:08;;;;;;;6.95;4.25;;;;;;;;;;5033865;28;20295;-78
2023/12/30 10:45:34;;;;;;;;;;;;;;;;;;5038245;28;20084;-77
2023/12/30 10:48:00;;;;;;;5.63;3.53;;;;;;;;;;5049200;28;19968;-77
2023/12/30 10:50:26;;;;;;;;;;;;;;;;;;5026586;28;20393;-76
2023/12/30 10:53:01;;;;;;;9.25;3.80;;;;;;;;;;5034825;28;20373;-77
2023/12/30 10:55:30;;;;;;;7.50;3.70;;;;;;;;;;5033397;28;20112;-78
2023/12/30 10:57:58;;;;;;;6.22;3.60;;;;;;;;;;5033073;28;20025;-77
2023/12/30 11:00:24;;;;;;;8.18;4.07;;;;;;;;;;5031128;28;20043;-77
2023/12/30 11:02:49;;;;;;;;;;;;;;;;;;5033615;28;20021;-77
2023/12/30 11:05:27;;;;;;;10.00;3.67;;;;;;;;;;5050053;28;19912;-78
2023/12/30 11:07:52;;;;;;;6.45;4.18;;;;;;;;;;5035077;28;20068;-77
2023/12/30 11:10:17;;;;;;;;;;;;;;;;;;5050299;28;20060;-77
2023/12/30 11:12:44;;;;;;;6.93;4.45;;;;;;;;;;5033050;28;19913;-77
2023/12/30 11:15:09;;;;;;;;;;;;;;;;;;5032656;28;20063;-77
2023/12/30 11:17:35;;;;;;;6.57;4.40;;;;;;;;;;5032259;28;19948;-77
2023/12/30 11:20:00;;;;;;;;;;;;;;;;;;5028311;28;20033;-76
2023/12/30 11:22:25;;;;;;;7.63;4.60;;;;;;;;;;5038018;28;19913;-76
2023/12/30 11:24:51;;;;;;;9.65;5.10;;;;;;;;;;5036874;28;20037;-78
2023/12/30 11:27:16;;;;;;;;;;;;;;;;;;5031697;28;20053;-77
2023/12/30 11:29:42;;;;;;;10.55;5.80;;;;;;;;;;5046640;28;19913;-77
2023/12/30 11:32:07;;;;;;;;;;;;;;;;;;5015897;28;20428;-79
2023/12/30 11:34:32;;;;;;;9.95;5.53;;;;;;;;;;5047501;28;20299;-75
2023/12/30 11:36:58;;;;;;;;;;;;;;;;;;5025706;28;20495;-77
2023/12/30 11:39:25;;;;;;;10.77;6.28;;;;;;;;;;5036345;28;19915;-78
2023/12/30 11:41:53;;;;;;;10.75;6.07;;;;;;;;;;5042901;28;20122;-78
2023/12/30 11:44:18;;;;;;;12.43;7.03;;;;;;;;;;5024859;28;20182;-77
2023/12/30 11:46:43;;;;;;;;;;;;;;;;;;5016862;28;20114;-78
2023/12/30 11:49:09;;;;;;;13.23;6.88;;;;;;;;;;5035816;28;19913;-78
2023/12/30 11:51:34;;;;;;;15.10;6.57;;;;;;;;;;5028942;28;20030;-78
2023/12/30 11:54:06;;;;;;;11.85;6.47;;;;;;;;;;5026659;28;20578;-78
2023/12/30 11:56:32;;;;;;;10.85;5.72;;;;;;;;;;5029940;28;20029;-78
2023/12/30 11:58:58;;;;;;;;;;;;;;;;;;5032819;28;20551;-76
2023/12/30 12:01:23;;;;;;;9.88;6.70;;;;;;;;;;5031759;28;19913;-77
2023/12/30 12:03:49;;;;;;;11.73;6.00;;;;;;;;;;5014313;28;20522;-78
2023/12/30 12:06:15;;;;;;;9.73;5.78;;;;;;;;;;5034134;28;20059;-77
2023/12/30 12:08:40;;;;;;;8.98;5.68;;;;;;;;;;5031081;28;20025;-78
2023/12/30 12:11:06;;;;;;;;;;;;;;;;;;5027230;28;20037;-77
2023/12/30 12:13:31;;;;;;;10.80;6.05;;;;;;;;;;5031943;28;19959;-77
2023/12/30 12:15:57;;;;;;;;;;;;;;;;;;5023648;28;20037;-78
2023/12/30 12:18:22;;;;;;;9.68;5.80;;;;;;;;;;5026856;28;19909;-75
2023/12/30 12:20:48;;;;;;;;;;;;;;;;;;5013114;28;20038;-76
2023/12/30 12:23:13;;;;;;;10.40;6.50;;;;;;;;;;5039683;28;19909;-77
2023/12/30 12:25:39;;;;;;;11.27;5.63;;;;;;;;;;5030004;28;20481;-77
2023/12/30 12:28:10;;;;;;;13.00;6.35;;;;;;;;;;5030644;28;20036;-76
2023/12/30 12:30:36;;;;;;;10.68;5.28;;;;;;;;;;5029990;28;20056;-78
2023/12/30 12:33:01;;;;;;;;;;;;;;;;;;5030783;28;20064;-77
2023/12/30 12:35:27;;;;;;;9.75;5.53;;;;;;;;;;5033159;28;20336;-77
2023/12/30 12:37:52;;;;;;;;;;;;;;;;;;5039117;28;20025;-78
2023/12/30 12:40:17;;;;;;;9.50;5.15;;;;;;;;;;5031055;28;20284;-76
2023/12/30 12:42:43;;;;;;;8.95;4.85;;;;;;;;;;5029894;28;20025;-77
2023/12/30 12:45:09;;;;;;;8.15;4.80;;;;;;;;;;5032649;28;20053;-76
2023/12/30 12:47:34;;;;;;;10.15;5.18;;;;;;;;;;5034338;28;20129;-77
2023/12/30 12:50:00;;;;;;;;;;;;;;;;;;5029506;28;20045;-77
2023/12/30 12:52:26;;;;;;;9.88;4.78;;;;;;;;;;5047817;28;19915;-78
2023/12/30 12:54:51;;;;;;;;;;;;;;;;;;5014222;28;20029;-76
2023/12/30 12:57:17;;;;;;;9.63;5.05;;;;;;;;;;5034939;28;19910;-77
2023/12/30 12:59:42;;;;;;;8.88;4.75;;;;;;;;;;5027903;28;20033;-77
2023/12/30 13:02:08;;;;;;;;;;;;;;;;;;5045638;28;20040;-76
2023/12/30 13:04:34;;;;;;;9.18;4.63;;;;;;;;;;5027454;28;19913;-76
2023/12/30 13:06:59;;;;;;;;;;;;;;;;;;5026916;28;20138;-75
2023/12/30 13:09:36;;;;;;;8.25;4.43;;;;;;;;;;5053196;28;19924;-76
2023/12/30 13:12:03;;;;;;;10.07;4.68;;;;;;;;;;5037669;28;20040;-76
2023/12/30 13:14:28;;;;;;;;;;;;;;;;;;5023303;28;20156;-77
2023/12/30 13:16:54;;;;;;;11.60;4.60;;;;;;;;;;5042723;28;19913;-77
2023/12/30 13:19:20;;;;;;;;;;;;;;;;;;5029453;28;20480;-77
2023/12/30 13:21:48;;;;;;;8.38;4.97;;;;;;;;;;5030293;28;19913;-77
2023/12/30 13:24:14;;;;;;;7.25;4.55;;;;;;;;;;5022354;28;20488;-77
2023/12/30 13:26:39;;;;;;;;;;;;;;;;;;5029385;28;20030;-77
2023/12/30 13:29:05;;;;;;;9.40;3.50;;;;;;;;;;5028419;28;19979;-75
2023/12/30 13:31:33;;;;;;;8.30;3.88;;;;;;;;;;5020144;28;20132;-76
2023/12/30 13:33:59;;;;;;;8.13;3.88;;;;;;;;;;5022559;28;20041;-77
2023/12/30 13:36:25;;;;;;;;;;;;;;;;;;5022755;28;20072;-76
2023/12/30 13:38:59;;;;;;;7.72;4.22;;;;;;;;;;5028979;28;19945;-75
2023/12/30 13:41:25;;;;;;;11.00;5.20;;;;;;;;;;5029012;28;20163;-77
2023/12/30 13:43:52;;;;;;;;;;;;;;;;;;5029351;28;20114;-76
2023/12/30 13:46:56;;;;;;;;;;;;;;;;;;5034555;28;19943;-77
2023/12/30 13:49:42;;;;;;;9.55;4.70;;;;;;;;;;5024434;28;20338;-76
2023/12/30 13:52:07;;;;;;;8.90;5.05;;;;;;;;;;5044340;28;20033;-77
2023/12/30 13:54:33;;;;;;;;;;;;;;;;;;5033314;28;20400;-76
2023/12/30 13:57:12;;;;;;;9.35;5.55;;;;;;;;;;5032751;28;19917;-76
2023/12/30 13:59:38;;;;;;;8.95;5.10;;;;;;;;;;5033702;28;20037;-77
2023/12/30 14:02:03;;;;;;;;;;;;;;;;;;5043038;28;20030;-75
2023/12/30 14:04:30;;;;;;;8.73;4.90;;;;;;;;;;5030813;28;19924;-76
2023/12/30 14:06:58;;;;;;;9.60;5.60;;;;;;;;;;5032522;28;20025;-77
2023/12/30 14:12:11;;;;;;;12.85;6.50;;;;;;;;;;5033489;28;20036;-76
2023/12/30 14:14:46;;;;;;;15.40;6.60;;;;;;;;;;5045270;28;20027;-76
2023/12/30 14:17:13;;;;;;;10.93;6.50;;;;;;;;;;5035944;28;20408;-78
2023/12/30 14:19:39;;;;;;;11.25;6.75;;;;;;;;;;5032232;28;20029;-77
2023/12/30 14:22:06;;;;;;;;;;;;;;;;;;5005240;28;20051;-77
2023/12/30 14:24:32;;;;;;;10.45;6.50;;;;;;;;;;5040521;28;20364;-76
2023/12/30 14:26:57;;;;;;;14.48;7.40;;;;;;;;;;5039033;28;20037;-77
2023/12/30 14:29:23;;;;;;;14.30;7.03;;;;;;;;;;5011204;28;20033;-77
2023/12/30 14:31:48;;;;;;;;;;;;;;;;;;5035090;28;20034;-76
2023/12/30 14:34:14;;;;;;;11.57;7.55;;;;;;;;;;5031956;28;19909;-77
2023/12/30 14:36:39;;;;;;;11.70;7.80;;;;;;;;;;5031590;28;20029;-77
2023/12/30 14:39:06;;;;;;;;;;;;;;;;;;5031753;28;20029;-77
2023/12/30 14:41:32;;;;;;;11.80;7.37;;;;;;;;;;5039213;28;19970;-77
2023/12/30 14:43:57;;;;;;;10.68;7.05;;;;;;;;;;5038434;28;20508;-77
2023/12/30 14:46:23;;;;;;;15.75;7.75;;;;;;;;;;5033098;28;20116;-79
2023/12/30 14:48:48;;;;;;;;;;;;;;;;;;5033252;28;20034;-78
2023/12/30 14:51:13;;;;;;;15.30;8.10;;;;;;;;;;5032490;28;19913;-78
2023/12/30 14:53:39;;;;;;;10.48;7.07;;;;;;;;;;5031346;28;20033;-78
2023/12/30 14:56:04;;;;;;;12.80;8.05;;;;;;;;;;5032468;28;20052;-77
2023/12/30 14:58:30;;;;;;;;;;;;;;;;;;5041224;28;20495;-77
2023/12/30 15:00:55;;;;;;;12.70;7.22;;;;;;;;;;5031471;28;19920;-77